createdAt,value
2018-03-21T00:00:11.037Z,91.90
2018-03-21T00:02:13.682Z,91.90
2018-03-21T00:04:17.086Z,92.20
2018-03-21T00:06:20.474Z,91.90
2018-03-21T00:08:23.884Z,92.00
2018-03-21T00:10:26.590Z,92.00
2018-03-21T00:12:29.272Z,91.80
2018-03-21T00:14:31.929Z,92.20
2018-03-21T00:16:34.630Z,92.60
2018-03-21T00:18:37.337Z,92.50
2018-03-21T00:20:40.752Z,91.80
2018-03-21T00:22:44.190Z,91.80
2018-03-21T00:24:46.831Z,91.80
2018-03-21T00:26:49.590Z,91.80
2018-03-21T00:28:54.041Z,92.30
2018-03-21T00:30:56.656Z,92.30
2018-03-21T00:32:59.374Z,91.60
2018-03-21T00:35:02.152Z,91.70
2018-03-21T00:37:04.914Z,91.50
2018-03-21T00:39:08.475Z,91.10
2018-03-21T00:41:11.086Z,91.10
2018-03-21T00:43:14.574Z,90.50
2018-03-21T00:45:17.215Z,90.50
2018-03-21T00:47:19.848Z,90.90
2018-03-21T00:49:22.511Z,91.40
2018-03-21T00:51:25.920Z,90.70
2018-03-21T00:53:28.558Z,90.70
2018-03-21T00:55:31.207Z,90.90
2018-03-21T00:57:33.874Z,91.20
2018-03-21T00:59:36.655Z,90.90
2018-03-21T01:01:40.107Z,90.60
2018-03-21T01:03:42.912Z,90.50
2018-03-21T01:05:45.715Z,90.70
2018-03-21T01:07:49.246Z,91.00
2018-03-21T01:09:52.083Z,90.90
2018-03-21T01:11:54.870Z,90.90
2018-03-21T01:13:57.540Z,90.90
2018-03-21T01:16:00.429Z,90.70
2018-03-21T01:18:03.466Z,90.50
2018-03-21T01:20:07.031Z,90.70
2018-03-21T01:22:09.747Z,90.70
2018-03-21T01:24:12.528Z,90.50
2018-03-21T01:26:16.373Z,90.60
2018-03-21T01:28:19.132Z,90.40
2018-03-21T01:30:21.814Z,90.20
2018-03-21T01:32:24.428Z,90.20
2018-03-21T01:34:27.175Z,89.80
2018-03-21T01:36:29.837Z,90.50
2018-03-21T01:38:32.494Z,90.50
2018-03-21T01:40:35.260Z,90.00
2018-03-21T01:42:37.979Z,90.20
2018-03-21T01:44:40.731Z,89.60
2018-03-21T01:46:43.481Z,89.60
2018-03-21T01:48:46.150Z,90.10
2018-03-21T01:50:48.800Z,90.30
2018-03-21T01:53:03.243Z,89.70
2018-03-21T01:55:05.952Z,90.10
2018-03-21T01:57:08.592Z,90.50
2018-03-21T01:59:11.343Z,90.10
2018-03-21T02:01:13.991Z,89.80
2018-03-21T02:03:16.719Z,89.50
2018-03-21T02:05:19.519Z,89.00
2018-03-21T02:07:22.151Z,89.30
2018-03-21T02:09:24.784Z,88.90
2018-03-21T02:11:27.429Z,88.20
2018-03-21T02:13:30.157Z,88.00
2018-03-21T02:15:32.896Z,88.60
2018-03-21T02:17:35.553Z,87.80
2018-03-21T02:19:38.374Z,88.40
2018-03-21T02:21:41.838Z,88.30
2018-03-21T02:23:44.953Z,88.20
2018-03-21T02:25:48.312Z,87.80
2018-03-21T02:27:51.011Z,88.10
2018-03-21T02:29:53.749Z,86.70
2018-03-21T02:31:56.366Z,87.30
2018-03-21T02:33:59.096Z,86.70
2018-03-21T02:36:01.724Z,86.80
2018-03-21T02:38:04.371Z,86.20
2018-03-21T02:40:07.019Z,87.40
2018-03-21T02:42:09.707Z,86.00
2018-03-21T02:44:12.396Z,86.00
2018-03-21T02:46:15.074Z,87.50
2018-03-21T02:48:17.770Z,87.50
2018-03-21T02:50:20.514Z,87.60
2018-03-21T02:52:23.143Z,87.20
2018-03-21T02:54:25.781Z,86.30
2018-03-21T02:56:28.428Z,86.30
2018-03-21T02:58:31.054Z,86.10
2018-03-21T03:00:33.707Z,85.10
2018-03-21T03:02:36.357Z,85.60
2018-03-21T03:04:38.964Z,86.40
2018-03-21T03:06:41.636Z,85.00
2018-03-21T03:08:44.445Z,86.10
2018-03-21T03:10:47.082Z,86.40
2018-03-21T03:12:49.735Z,86.20
2018-03-21T03:14:52.405Z,85.90
2018-03-21T03:16:55.805Z,86.00
2018-03-21T03:18:58.466Z,86.00
2018-03-21T03:21:01.880Z,86.40
2018-03-21T03:23:04.555Z,86.30
2018-03-21T03:25:07.199Z,85.40
2018-03-21T03:27:09.891Z,85.60
2018-03-21T03:29:12.890Z,85.90
2018-03-21T03:31:15.929Z,86.00
2018-03-21T03:33:23.794Z,86.80
2018-03-21T03:35:28.661Z,86.70
2018-03-21T03:37:33.656Z,86.40
2018-03-21T03:39:36.726Z,85.50
2018-03-21T03:41:39.617Z,85.90
2018-03-21T03:43:42.480Z,85.80
2018-03-21T03:45:45.583Z,85.80
2018-03-21T03:47:48.453Z,84.80
2018-03-21T03:49:52.290Z,85.60
2018-03-21T03:51:55.008Z,84.80
2018-03-21T03:54:00.121Z,86.40
2018-03-21T03:56:02.894Z,86.30
2018-03-21T03:58:06.519Z,86.80
2018-03-21T04:00:09.163Z,86.80
2018-03-21T04:02:11.836Z,85.70
2018-03-21T04:04:14.485Z,86.30
2018-03-21T04:06:17.140Z,86.50
2018-03-21T04:08:19.929Z,85.90
2018-03-21T04:10:22.993Z,85.70
2018-03-21T04:12:25.646Z,86.30
2018-03-21T04:14:28.356Z,86.40
2018-03-21T04:16:31.004Z,87.00
2018-03-21T04:18:34.505Z,86.50
2018-03-21T04:20:37.190Z,86.50
2018-03-21T04:22:39.865Z,86.10
2018-03-21T04:24:42.507Z,86.50
2018-03-21T04:26:45.164Z,86.50
2018-03-21T04:28:47.821Z,85.60
2018-03-21T04:30:50.483Z,86.00
2018-03-21T04:32:53.119Z,85.60
2018-03-21T04:34:56.550Z,86.50
2018-03-21T04:36:59.180Z,86.20
2018-03-21T04:39:01.841Z,86.70
2018-03-21T04:41:04.448Z,87.30
2018-03-21T04:43:07.851Z,87.20
2018-03-21T04:45:11.333Z,86.70
2018-03-21T04:47:13.962Z,86.70
2018-03-21T04:49:16.723Z,86.70
2018-03-21T04:51:19.322Z,86.70
2018-03-21T04:53:21.944Z,86.50
2018-03-21T04:55:25.342Z,86.60
2018-03-21T04:57:29.476Z,86.80
2018-03-21T04:59:32.122Z,86.80
2018-03-21T05:01:35.566Z,86.80
2018-03-21T05:03:38.205Z,86.70
2018-03-21T05:05:41.631Z,87.20
2018-03-21T05:07:44.274Z,87.10
2018-03-21T05:09:47.991Z,87.10
2018-03-21T05:11:50.667Z,87.10
2018-03-21T05:13:53.328Z,87.60
2018-03-21T05:15:55.950Z,87.60
2018-03-21T05:17:58.567Z,87.10
2018-03-21T05:20:01.986Z,87.60
2018-03-21T05:22:05.816Z,87.60
2018-03-21T05:24:08.469Z,87.30
2018-03-21T05:26:11.098Z,87.20
2018-03-21T05:28:13.734Z,87.00
2018-03-21T05:30:16.378Z,86.90
2018-03-21T05:32:19.140Z,87.70
2018-03-21T05:34:22.569Z,87.80
2018-03-21T05:36:25.255Z,87.80
2018-03-21T05:38:27.986Z,87.00
2018-03-21T05:40:31.412Z,87.40
2018-03-21T05:42:34.104Z,86.80
2018-03-21T05:44:36.863Z,87.60
2018-03-21T05:46:39.559Z,87.30
2018-03-21T05:48:43.024Z,87.80
2018-03-21T05:50:46.442Z,87.50
2018-03-21T05:52:49.304Z,87.50
2018-03-21T05:54:52.018Z,87.70
2018-03-21T05:56:54.634Z,87.70
2018-03-21T05:58:58.026Z,87.50
2018-03-21T06:01:00.671Z,87.80
2018-03-21T06:03:03.321Z,87.40
2018-03-21T06:05:05.956Z,87.10
2018-03-21T06:07:09.420Z,87.50
2018-03-21T06:09:12.050Z,87.40
2018-03-21T06:11:14.741Z,87.60
2018-03-21T06:13:17.493Z,87.70
2018-03-21T06:15:20.111Z,87.20
2018-03-21T06:17:22.732Z,87.00
2018-03-21T06:19:26.127Z,87.40
2018-03-21T06:21:29.644Z,87.50
2018-03-21T06:23:32.271Z,87.50
2018-03-21T06:25:34.881Z,86.70
2018-03-21T06:27:38.357Z,86.80
2018-03-21T06:29:41.797Z,86.80
2018-03-21T06:31:44.396Z,86.80
2018-03-21T06:34:02.567Z,87.00
2018-03-21T06:36:07.307Z,85.90
2018-03-21T06:38:10.723Z,85.40
2018-03-21T06:40:14.122Z,86.40
2018-03-21T06:42:17.614Z,84.30
2018-03-21T06:44:20.234Z,84.20
2018-03-21T06:46:22.860Z,84.10
2018-03-21T06:48:26.428Z,84.20
2018-03-21T06:50:29.808Z,84.00
2018-03-21T06:52:32.531Z,83.90
2018-03-21T06:54:35.296Z,83.70
2018-03-21T06:56:37.898Z,84.60
2018-03-21T06:58:40.512Z,83.90
2018-03-21T07:00:43.201Z,83.60
2018-03-21T07:02:46.605Z,83.10
2018-03-21T07:04:49.973Z,83.20
2018-03-21T07:06:52.607Z,83.20
2018-03-21T07:08:55.234Z,83.90
2018-03-21T07:10:58.616Z,83.60
2018-03-21T07:13:01.252Z,83.50
2018-03-21T07:15:15.501Z,82.60
2018-03-21T07:17:18.126Z,83.10
2018-03-21T07:19:21.544Z,83.10
2018-03-21T07:21:24.206Z,83.10
2018-03-21T07:23:26.831Z,82.60
2018-03-21T07:25:29.443Z,82.80
2018-03-21T07:27:32.059Z,83.00
2018-03-21T07:29:34.700Z,83.90
2018-03-21T07:31:38.094Z,82.90
2018-03-21T07:33:41.510Z,82.30
2018-03-21T07:35:44.142Z,82.30
2018-03-21T07:37:46.784Z,82.80
2018-03-21T07:39:49.410Z,81.50
2018-03-21T07:41:52.798Z,82.60
2018-03-21T07:43:56.285Z,81.20
2018-03-21T07:45:58.944Z,81.10
2018-03-21T07:48:01.558Z,81.20
2018-03-21T07:50:04.190Z,80.90
2018-03-21T07:52:06.824Z,79.90
2018-03-21T07:54:09.444Z,81.00
2018-03-21T07:56:12.080Z,80.50
2018-03-21T07:58:14.691Z,80.80
2018-03-21T08:00:17.351Z,81.40
2018-03-21T08:02:20.002Z,82.70
2018-03-21T08:04:22.643Z,80.20
2018-03-21T08:06:25.324Z,81.30
2018-03-21T08:08:27.947Z,81.90
2018-03-21T08:10:30.602Z,82.20
2018-03-21T08:12:33.245Z,81.90
2018-03-21T08:14:35.900Z,81.00
2018-03-21T08:16:38.509Z,79.90
2018-03-21T08:18:41.903Z,80.20
2018-03-21T08:20:45.287Z,81.10
2018-03-21T08:22:48.021Z,81.70
2018-03-21T08:24:50.626Z,81.30
2018-03-21T08:26:53.270Z,83.20
2018-03-21T08:28:56.036Z,81.60
2018-03-21T08:30:58.673Z,79.60
2018-03-21T08:33:02.040Z,78.10
2018-03-21T08:35:04.736Z,78.00
2018-03-21T08:37:08.162Z,78.60
2018-03-21T08:39:10.842Z,78.60
2018-03-21T08:41:13.472Z,79.10
2018-03-21T08:43:16.203Z,79.10
2018-03-21T08:45:18.898Z,78.50
2018-03-21T08:47:21.530Z,78.90
2018-03-21T08:49:24.162Z,78.20
2018-03-21T08:51:26.858Z,78.80
2018-03-21T08:53:29.468Z,78.70
2018-03-21T08:55:32.111Z,79.40
2018-03-21T08:57:34.729Z,78.00
2018-03-21T08:59:37.416Z,80.50
2018-03-21T09:01:40.057Z,80.80
2018-03-21T09:03:42.994Z,78.90
2018-03-21T09:05:45.664Z,78.70
2018-03-21T09:07:48.271Z,79.00
2018-03-21T09:09:50.897Z,78.10
2018-03-21T09:11:53.556Z,76.30
2018-03-21T09:13:56.179Z,77.60
2018-03-21T09:15:58.816Z,76.30
2018-03-21T09:18:01.479Z,76.40
2018-03-21T09:20:04.069Z,75.80
2018-03-21T09:22:06.754Z,73.80
2018-03-21T09:24:09.439Z,74.40
2018-03-21T09:26:12.058Z,72.50
2018-03-21T09:28:15.457Z,71.40
2018-03-21T09:30:18.074Z,71.40
2018-03-21T09:32:20.721Z,71.10
2018-03-21T09:34:23.470Z,70.50
2018-03-21T09:36:26.150Z,71.30
2018-03-21T09:38:29.550Z,67.40
2018-03-21T09:40:32.230Z,67.30
2018-03-21T09:42:35.627Z,70.00
2018-03-21T09:44:38.275Z,70.10
2018-03-21T09:46:40.954Z,67.50
2018-03-21T09:48:43.625Z,69.30
2018-03-21T09:50:46.355Z,68.00
2018-03-21T09:52:49.012Z,68.30
2018-03-21T09:54:51.685Z,67.40
2018-03-21T09:56:54.343Z,69.00
2018-03-21T09:58:57.763Z,66.90
2018-03-21T10:01:00.442Z,66.90
2018-03-21T10:03:03.051Z,66.90
2018-03-21T10:05:05.684Z,67.50
2018-03-21T10:07:08.321Z,66.70
2018-03-21T10:09:10.944Z,67.80
2018-03-21T10:11:13.743Z,66.60
2018-03-21T10:13:16.382Z,63.30
2018-03-21T10:15:19.039Z,67.00
2018-03-21T10:17:22.428Z,63.20
2018-03-21T10:19:25.829Z,65.10
2018-03-21T10:21:29.258Z,66.20
2018-03-21T10:23:31.908Z,66.20
2018-03-21T10:25:35.295Z,59.90
2018-03-21T10:27:38.716Z,56.00
2018-03-21T10:29:41.393Z,55.90
2018-03-21T10:31:44.058Z,60.50
2018-03-21T10:33:46.679Z,59.40
2018-03-21T10:35:49.372Z,55.50
2018-03-21T10:37:52.117Z,56.80
2018-03-21T10:39:54.727Z,57.10
2018-03-21T10:41:57.381Z,54.60
2018-03-21T10:44:00.018Z,55.70
2018-03-21T10:46:02.692Z,55.70
2018-03-21T10:48:05.367Z,59.70
2018-03-21T10:50:08.027Z,53.50
2018-03-21T10:52:11.447Z,54.70
2018-03-21T10:54:14.192Z,54.70
2018-03-21T10:56:17.594Z,58.80
2018-03-21T10:58:21.003Z,57.00
2018-03-21T11:00:23.933Z,57.00
2018-03-21T11:02:26.540Z,52.80
2018-03-21T11:04:30.012Z,56.40
2018-03-21T11:06:32.674Z,56.40
2018-03-21T11:08:35.307Z,56.70
2018-03-21T11:10:37.946Z,55.00
2018-03-21T11:12:41.410Z,51.10
2018-03-21T11:14:44.952Z,51.20
2018-03-21T11:16:48.384Z,53.80
2018-03-21T11:18:51.007Z,53.80
2018-03-21T11:20:53.751Z,53.70
2018-03-21T11:22:56.402Z,58.10
2018-03-21T11:24:59.043Z,55.90
2018-03-21T11:27:02.440Z,53.40
2018-03-21T11:29:05.120Z,53.30
2018-03-21T11:31:07.812Z,50.60
2018-03-21T11:33:10.436Z,52.60
2018-03-21T11:35:13.061Z,52.70
2018-03-21T11:37:15.898Z,52.50
2018-03-21T11:39:18.830Z,49.10
2018-03-21T11:41:21.510Z,50.40
2018-03-21T11:43:24.158Z,53.30
2018-03-21T11:45:26.824Z,48.60
2018-03-21T11:47:29.459Z,47.80
2018-03-21T11:49:32.114Z,46.80
2018-03-21T11:51:34.843Z,46.10
2018-03-21T11:53:38.266Z,54.00
2018-03-21T11:55:41.697Z,51.00
2018-03-21T11:57:44.343Z,51.00
2018-03-21T11:59:47.016Z,48.90
2018-03-21T12:01:50.559Z,47.40
2018-03-21T12:03:53.190Z,47.40
2018-03-21T12:05:56.586Z,46.40
2018-03-21T12:07:59.222Z,46.40
2018-03-21T12:10:01.975Z,44.80
2018-03-21T12:12:04.613Z,47.40
2018-03-21T12:14:07.286Z,49.60
2018-03-21T12:16:10.776Z,48.60
2018-03-21T12:18:13.507Z,48.50
2018-03-21T12:20:16.152Z,48.10
2018-03-21T12:22:18.814Z,46.10
2018-03-21T12:24:21.443Z,46.50
2018-03-21T12:26:24.240Z,45.60
2018-03-21T12:28:27.634Z,46.70
2018-03-21T12:30:30.293Z,46.60
2018-03-21T12:32:32.964Z,45.60
2018-03-21T12:34:35.714Z,45.10
2018-03-21T12:36:38.386Z,44.80
2018-03-21T12:38:41.017Z,45.70
2018-03-21T12:40:43.650Z,44.90
2018-03-21T12:42:46.315Z,44.80
2018-03-21T12:44:48.993Z,42.50
2018-03-21T12:46:51.618Z,44.10
2018-03-21T12:48:55.085Z,38.80
2018-03-21T12:50:57.755Z,38.70
2018-03-21T12:53:00.446Z,37.30
2018-03-21T12:55:03.068Z,36.70
2018-03-21T12:57:05.706Z,41.10
2018-03-21T12:59:08.468Z,40.20
2018-03-21T13:01:11.116Z,36.10
2018-03-21T13:03:13.767Z,33.20
2018-03-21T13:05:17.700Z,35.60
2018-03-21T13:07:20.393Z,37.40
2018-03-21T13:09:23.062Z,34.10
2018-03-21T13:11:25.681Z,35.20
2018-03-21T13:13:29.068Z,37.20
2018-03-21T13:15:32.501Z,33.20
2018-03-21T13:17:35.245Z,33.20
2018-03-21T13:19:37.947Z,31.70
2018-03-21T13:21:40.603Z,32.60
2018-03-21T13:23:43.238Z,31.60
2018-03-21T13:25:45.921Z,30.60
2018-03-21T13:27:48.554Z,32.10
2018-03-21T13:29:51.223Z,35.10
2018-03-21T13:31:54.642Z,31.20
2018-03-21T13:33:57.252Z,31.10
2018-03-21T13:35:59.930Z,32.20
2018-03-21T13:38:02.550Z,31.30
2018-03-21T13:40:05.182Z,33.30
2018-03-21T13:42:07.799Z,35.20
2018-03-21T13:44:10.456Z,36.40
2018-03-21T13:46:14.010Z,31.90
2018-03-21T13:48:16.623Z,31.90
2018-03-21T13:50:19.257Z,31.50
2018-03-21T13:52:21.886Z,31.90
2018-03-21T13:54:25.292Z,29.60
2018-03-21T13:56:27.953Z,29.50
2018-03-21T13:58:31.371Z,28.60
2018-03-21T14:00:34.031Z,28.60
2018-03-21T14:02:37.422Z,30.80
2018-03-21T14:04:40.866Z,29.90
2018-03-21T14:06:43.510Z,29.90
2018-03-21T14:08:46.165Z,30.30
2018-03-21T14:10:49.606Z,30.20
2018-03-21T14:12:52.260Z,30.20
2018-03-21T14:14:54.942Z,30.10
2018-03-21T14:16:57.598Z,35.10
2018-03-21T14:19:00.227Z,32.00
2018-03-21T14:21:03.014Z,33.70
2018-03-21T14:23:05.625Z,33.20
2018-03-21T14:25:08.276Z,32.80
2018-03-21T14:27:10.904Z,30.90
2018-03-21T14:29:13.577Z,31.10
2018-03-21T14:31:16.410Z,30.40
2018-03-21T14:33:19.090Z,30.10
2018-03-21T14:35:22.477Z,30.10
2018-03-21T14:37:25.138Z,30.00
2018-03-21T14:39:27.750Z,30.20
2018-03-21T14:41:31.177Z,29.00
2018-03-21T14:43:34.568Z,28.50
2018-03-21T14:45:37.179Z,28.50
2018-03-21T14:47:39.813Z,29.80
2018-03-21T14:49:42.513Z,27.60
2018-03-21T14:51:45.274Z,28.40
2018-03-21T14:53:47.897Z,29.20
2018-03-21T14:55:51.309Z,28.40
2018-03-21T14:57:54.702Z,29.40
2018-03-21T14:59:57.340Z,29.40
2018-03-21T15:02:00.015Z,33.00
2018-03-21T15:04:02.695Z,32.30
2018-03-21T15:06:05.361Z,32.50
2018-03-21T15:08:08.001Z,31.30
2018-03-21T15:10:10.717Z,34.20
2018-03-21T15:12:13.324Z,31.60
2018-03-21T15:14:16.722Z,29.90
2018-03-21T15:16:20.167Z,29.90
2018-03-21T15:18:22.834Z,29.90
2018-03-21T15:20:25.713Z,30.80
2018-03-21T15:22:28.341Z,31.90
2018-03-21T15:24:31.803Z,33.50
2018-03-21T15:26:34.510Z,33.50
2018-03-21T15:28:37.136Z,31.40
2018-03-21T15:30:39.812Z,31.20
2018-03-21T15:32:43.186Z,29.80
2018-03-21T15:34:45.863Z,29.80
2018-03-21T15:36:48.595Z,31.30
2018-03-21T15:38:51.231Z,31.20
2018-03-21T15:40:53.853Z,32.30
2018-03-21T15:42:57.030Z,32.40
2018-03-21T15:45:00.482Z,30.70
2018-03-21T15:47:03.166Z,30.60
2018-03-21T15:49:05.831Z,32.10
2018-03-21T15:51:08.647Z,33.40
2018-03-21T15:53:11.368Z,33.90
2018-03-21T15:55:13.986Z,32.90
2018-03-21T15:57:16.618Z,30.60
2018-03-21T15:59:20.042Z,31.30
2018-03-21T16:01:22.690Z,31.20
2018-03-21T16:03:25.470Z,30.70
2018-03-21T16:05:28.110Z,31.70
2018-03-21T16:07:30.722Z,30.60
2018-03-21T16:09:33.341Z,33.40
2018-03-21T16:11:36.004Z,33.40
2018-03-21T16:13:38.640Z,32.50
2018-03-21T16:15:41.420Z,32.90
2018-03-21T16:18:02.404Z,34.50
2018-03-21T16:20:07.403Z,36.50
2018-03-21T16:22:11.190Z,35.40
2018-03-21T16:24:14.384Z,35.30
2018-03-21T16:26:17.247Z,38.10
2018-03-21T16:28:20.267Z,34.40
2018-03-21T16:30:23.526Z,35.40
2018-03-21T16:32:26.372Z,34.00
2018-03-21T16:34:30.099Z,33.00
2018-03-21T16:36:32.969Z,33.70
2018-03-21T16:38:35.749Z,34.30
2018-03-21T16:40:38.507Z,34.30
2018-03-21T16:42:41.993Z,36.20
2018-03-21T16:44:45.971Z,35.10
2018-03-21T16:46:49.528Z,35.00
2018-03-21T16:48:53.290Z,35.30
2018-03-21T16:50:57.012Z,34.30
2018-03-21T16:53:00.607Z,34.90
2018-03-21T16:55:04.354Z,34.10
2018-03-21T16:57:07.310Z,34.00
2018-03-21T16:59:10.754Z,34.60
2018-03-21T17:01:14.044Z,34.00
2018-03-21T17:03:16.975Z,34.60
2018-03-21T17:05:19.814Z,35.50
2018-03-21T17:07:22.872Z,36.30
2018-03-21T17:09:25.808Z,36.50
2018-03-21T17:11:28.941Z,37.90
2018-03-21T17:13:32.493Z,37.80
2018-03-21T17:15:35.760Z,37.80
2018-03-21T17:17:39.113Z,37.20
2018-03-21T17:19:42.327Z,38.40
2018-03-21T17:21:45.552Z,39.80
2018-03-21T17:23:48.490Z,38.50
2018-03-21T17:25:51.819Z,38.40
2018-03-21T17:27:55.452Z,39.10
2018-03-21T17:30:00.323Z,41.20
2018-03-21T17:32:03.386Z,41.20
2018-03-21T17:34:06.510Z,42.10
2018-03-21T17:36:10.140Z,44.60
2018-03-21T17:38:13.111Z,44.50
2018-03-21T17:40:17.130Z,45.10
2018-03-21T17:42:20.189Z,45.10
2018-03-21T17:44:23.191Z,45.20
2018-03-21T17:46:26.788Z,44.20
2018-03-21T17:48:30.203Z,45.20
2018-03-21T17:50:34.574Z,46.20
2018-03-21T17:52:37.470Z,46.20
2018-03-21T17:54:40.395Z,48.30
2018-03-21T17:56:43.618Z,47.80
2018-03-21T17:58:46.883Z,48.90
2018-03-21T18:00:50.313Z,49.20
2018-03-21T18:02:53.514Z,50.50
2018-03-21T18:04:56.437Z,49.00
2018-03-21T18:06:59.154Z,50.70
2018-03-21T18:09:02.763Z,50.50
2018-03-21T18:11:06.427Z,52.50
2018-03-21T18:13:09.976Z,54.10
2018-03-21T18:15:12.800Z,54.10
2018-03-21T18:17:15.660Z,53.80
2018-03-21T18:19:18.364Z,52.90
2018-03-21T18:21:21.381Z,51.80
2018-03-21T18:23:25.217Z,53.70
2018-03-21T18:25:28.228Z,53.70
2018-03-21T18:27:31.204Z,54.20
2018-03-21T18:29:34.251Z,52.70
2018-03-21T18:31:37.952Z,54.80
2018-03-21T18:33:40.814Z,54.80
2018-03-21T18:35:43.471Z,55.50
2018-03-21T18:37:46.187Z,59.10
2018-03-21T18:39:48.962Z,58.90
2018-03-21T18:41:51.780Z,59.40
2018-03-21T18:43:55.382Z,59.90
2018-03-21T18:45:58.232Z,61.40
2018-03-21T18:48:01.184Z,60.20
2018-03-21T18:50:04.605Z,61.00
2018-03-21T18:52:08.914Z,60.90
2018-03-21T18:54:11.924Z,60.20
2018-03-21T18:56:14.855Z,60.90
2018-03-21T18:58:17.894Z,61.10
2018-03-21T19:00:21.019Z,60.10
2018-03-21T19:02:23.948Z,60.60
2018-03-21T19:04:27.052Z,60.70
2018-03-21T19:06:30.177Z,60.40
2018-03-21T19:08:32.996Z,59.70
2018-03-21T19:10:35.742Z,62.00
2018-03-21T19:12:38.405Z,63.70
2018-03-21T19:14:41.187Z,62.50
2018-03-21T19:16:43.984Z,63.70
2018-03-21T19:18:47.262Z,64.20
2018-03-21T19:20:49.924Z,64.10
2018-03-21T19:22:52.703Z,64.60
2018-03-21T19:24:55.497Z,63.60
2018-03-21T19:26:58.229Z,64.30
2018-03-21T19:29:01.707Z,65.10
2018-03-21T19:31:04.792Z,65.10
2018-03-21T19:33:09.114Z,67.20
2018-03-21T19:35:12.009Z,66.60
2018-03-21T19:37:14.663Z,65.90
2018-03-21T19:39:17.553Z,65.20
2018-03-21T19:41:20.235Z,66.10
2018-03-21T19:43:22.850Z,64.00
2018-03-21T19:45:25.519Z,65.30
2018-03-21T19:47:28.342Z,65.00
2018-03-21T19:49:31.963Z,65.50
2018-03-21T19:51:34.838Z,64.20
2018-03-21T19:53:37.728Z,64.30
2018-03-21T19:55:40.554Z,64.60
2018-03-21T19:57:43.277Z,63.30
2018-03-21T19:59:45.929Z,63.90
2018-03-21T20:01:49.637Z,66.30
2018-03-21T20:03:52.336Z,66.20
2018-03-21T20:05:55.040Z,67.10
2018-03-21T20:07:57.673Z,67.30
2018-03-21T20:10:00.442Z,67.20
2018-03-21T20:12:04.118Z,69.20
2018-03-21T20:14:07.707Z,68.50
2018-03-21T20:16:10.533Z,68.50
2018-03-21T20:18:13.361Z,68.50
2018-03-21T20:20:16.134Z,68.50
2018-03-21T20:22:18.765Z,68.60
2018-03-21T20:24:21.439Z,67.70
2018-03-21T20:26:24.114Z,66.50
2018-03-21T20:28:26.796Z,68.70
2018-03-21T20:30:29.508Z,69.20
2018-03-21T20:32:32.911Z,65.90
2018-03-21T20:34:36.245Z,65.90
2018-03-21T20:36:38.879Z,64.20
2018-03-21T20:38:41.495Z,66.70
2018-03-21T20:40:44.942Z,68.20
2018-03-21T20:42:47.571Z,68.10
2018-03-21T20:44:50.247Z,68.70
2018-03-21T20:46:54.318Z,69.40
2018-03-21T20:48:56.943Z,69.30
2018-03-21T20:50:59.607Z,70.10
2018-03-21T20:53:02.273Z,70.40
2018-03-21T20:55:04.955Z,71.50
2018-03-21T20:57:08.399Z,70.70
2018-03-21T20:59:11.247Z,70.70
2018-03-21T21:01:15.077Z,70.40
2018-03-21T21:03:17.810Z,70.40
2018-03-21T21:05:21.210Z,70.40
2018-03-21T21:07:24.721Z,68.70
2018-03-21T21:09:27.487Z,68.70
2018-03-21T21:11:30.160Z,71.70
2018-03-21T21:13:33.599Z,72.20
2018-03-21T21:15:36.232Z,72.10
2018-03-21T21:17:38.887Z,72.10
2018-03-21T21:19:41.552Z,73.00
2018-03-21T21:21:44.163Z,72.90
2018-03-21T21:23:47.598Z,73.20
2018-03-21T21:25:50.335Z,73.20
2018-03-21T21:27:53.100Z,74.80
2018-03-21T21:29:55.727Z,74.30
2018-03-21T21:31:58.380Z,74.60
2018-03-21T21:34:01.220Z,73.80
2018-03-21T21:36:03.808Z,72.60
2018-03-21T21:38:06.439Z,68.80
2018-03-21T21:40:09.111Z,70.80
2018-03-21T21:42:11.780Z,71.90
2018-03-21T21:44:14.478Z,70.80
2018-03-21T21:46:17.782Z,70.10
2018-03-21T21:48:20.402Z,69.80
2018-03-21T21:50:23.071Z,72.50
2018-03-21T21:52:25.727Z,72.30
2018-03-21T21:54:29.146Z,74.40
2018-03-21T21:56:31.808Z,74.40
2018-03-21T21:58:35.185Z,74.40
2018-03-21T22:00:37.835Z,74.40
2018-03-21T22:02:40.533Z,74.50
2018-03-21T22:04:43.213Z,74.50
2018-03-21T22:06:45.862Z,74.90
2018-03-21T22:08:48.530Z,74.70
2018-03-21T22:10:51.187Z,75.30
2018-03-21T22:12:53.821Z,75.30
2018-03-21T22:15:04.015Z,74.50
2018-03-21T22:17:06.638Z,74.50
2018-03-21T22:19:10.103Z,75.20
2018-03-21T22:21:13.175Z,75.20
2018-03-21T22:23:15.849Z,75.30
2018-03-21T22:25:18.551Z,75.30
2018-03-21T22:27:21.176Z,74.60
2018-03-21T22:29:23.843Z,74.10
2018-03-21T22:31:27.272Z,73.80
2018-03-21T22:33:29.890Z,73.70
2018-03-21T22:35:32.647Z,74.50
2018-03-21T22:37:35.264Z,74.70
2018-03-21T22:39:38.700Z,76.60
2018-03-21T22:41:41.322Z,76.60
2018-03-21T22:43:44.072Z,75.30
2018-03-21T22:45:46.737Z,75.50
2018-03-21T22:47:49.345Z,76.40
2018-03-21T22:49:52.050Z,75.90
2018-03-21T22:51:54.685Z,75.40
2018-03-21T22:53:57.362Z,74.50
2018-03-21T22:56:01.173Z,74.60
2018-03-21T22:58:03.798Z,74.90
2018-03-21T23:00:06.435Z,74.80
2018-03-21T23:02:09.094Z,74.50
2018-03-21T23:04:11.726Z,73.40
2018-03-21T23:06:14.392Z,74.20
2018-03-21T23:08:17.087Z,74.60
2018-03-21T23:10:19.753Z,74.10
2018-03-21T23:12:22.367Z,73.00
2018-03-21T23:14:25.064Z,73.90
2018-03-21T23:16:27.679Z,74.10
2018-03-21T23:18:30.312Z,73.80
2018-03-21T23:20:33.737Z,74.60
2018-03-21T23:22:36.390Z,74.60
2018-03-21T23:24:39.790Z,74.60
2018-03-21T23:26:43.203Z,75.00
2018-03-21T23:28:45.889Z,75.00
2018-03-21T23:30:48.512Z,75.80
2018-03-21T23:33:06.672Z,75.20
2018-03-21T23:35:10.013Z,76.50
2018-03-21T23:37:12.667Z,75.30
2018-03-21T23:39:15.373Z,76.00
2018-03-21T23:41:17.979Z,74.80
2018-03-21T23:43:20.651Z,74.40
2018-03-21T23:45:23.267Z,73.60
2018-03-21T23:47:25.961Z,73.80
2018-03-21T23:49:28.586Z,75.20
2018-03-21T23:51:31.991Z,76.00
2018-03-21T23:53:35.372Z,76.60
2018-03-21T23:55:38.739Z,75.50
2018-03-21T23:57:41.390Z,75.50
2018-03-21T23:59:44.045Z,73.80
